sensor_id;sensor_type;location;lat;lon;timestamp;temperature;humidity
74416;SHT31;62850;42.428;25.618;2023-03-31T00:00:28;9.13;36.64
74416;SHT31;62850;42.428;25.618;2023-03-31T00:02:55;9.10;36.66
74416;SHT31;62850;42.428;25.618;2023-03-31T00:05:23;9.20;36.99
74416;SHT31;62850;42.428;25.618;2023-03-31T00:07:53;9.26;36.71
74416;SHT31;62850;42.428;25.618;2023-03-31T00:10:19;9.31;36.69
74416;SHT31;62850;42.428;25.618;2023-03-31T00:12:45;9.24;37.57
74416;SHT31;62850;42.428;25.618;2023-03-31T00:15:11;9.31;36.70
74416;SHT31;62850;42.428;25.618;2023-03-31T00:17:36;9.35;36.77
74416;SHT31;62850;42.428;25.618;2023-03-31T00:20:02;9.35;36.81
74416;SHT31;62850;42.428;25.618;2023-03-31T00:22:30;9.35;36.97
74416;SHT31;62850;42.428;25.618;2023-03-31T00:24:56;9.31;37.84
74416;SHT31;62850;42.428;25.618;2023-03-31T00:27:21;9.27;37.81
74416;SHT31;62850;42.428;25.618;2023-03-31T00:29:46;9.20;38.18
74416;SHT31;62850;42.428;25.618;2023-03-31T00:32:14;9.13;39.24
74416;SHT31;62850;42.428;25.618;2023-03-31T00:34:40;9.09;38.90
74416;SHT31;62850;42.428;25.618;2023-03-31T00:37:06;9.14;39.02
74416;SHT31;62850;42.428;25.618;2023-03-31T00:39:34;9.19;39.08
74416;SHT31;62850;42.428;25.618;2023-03-31T00:42:03;9.10;39.42
74416;SHT31;62850;42.428;25.618;2023-03-31T00:44:29;9.19;39.16
74416;SHT31;62850;42.428;25.618;2023-03-31T00:47:04;9.19;39.32
74416;SHT31;62850;42.428;25.618;2023-03-31T00:52:03;9.19;39.85
74416;SHT31;62850;42.428;25.618;2023-03-31T00:54:30;9.16;40.30
74416;SHT31;62850;42.428;25.618;2023-03-31T00:56:58;9.07;40.98
74416;SHT31;62850;42.428;25.618;2023-03-31T00:59:29;9.06;41.16
74416;SHT31;62850;42.428;25.618;2023-03-31T01:01:57;9.09;41.31
74416;SHT31;62850;42.428;25.618;2023-03-31T01:04:29;9.10;41.31
74416;SHT31;62850;42.428;25.618;2023-03-31T01:10:01;9.10;41.54
74416;SHT31;62850;42.428;25.618;2023-03-31T01:12:29;8.94;42.71
74416;SHT31;62850;42.428;25.618;2023-03-31T01:14:55;8.72;43.33
74416;SHT31;62850;42.428;25.618;2023-03-31T01:17:21;8.66;43.11
74416;SHT31;62850;42.428;25.618;2023-03-31T01:25:07;8.39;43.64
74416;SHT31;62850;42.428;25.618;2023-03-31T01:31:30;8.24;43.91
74416;SHT31;62850;42.428;25.618;2023-03-31T01:47:19;7.83;46.07
74416;SHT31;62850;42.428;25.618;2023-03-31T01:49:55;7.76;46.13
74416;SHT31;62850;42.428;25.618;2023-03-31T01:52:37;7.71;46.63
74416;SHT31;62850;42.428;25.618;2023-03-31T01:55:23;7.70;46.74
74416;SHT31;62850;42.428;25.618;2023-03-31T01:57:53;7.59;47.24
74416;SHT31;62850;42.428;25.618;2023-03-31T02:00:29;7.48;47.64
74416;SHT31;62850;42.428;25.618;2023-03-31T02:03:08;7.50;47.55
74416;SHT31;62850;42.428;25.618;2023-03-31T02:05:50;7.49;47.92
74416;SHT31;62850;42.428;25.618;2023-03-31T02:08:35;7.48;48.17
74416;SHT31;62850;42.428;25.618;2023-03-31T02:11:02;7.38;48.50
74416;SHT31;62850;42.428;25.618;2023-03-31T02:13:28;7.35;48.50
74416;SHT31;62850;42.428;25.618;2023-03-31T02:15:58;7.33;49.08
74416;SHT31;62850;42.428;25.618;2023-03-31T02:18:28;7.12;49.64
74416;SHT31;62850;42.428;25.618;2023-03-31T02:20:56;7.21;49.59
74416;SHT31;62850;42.428;25.618;2023-03-31T02:23:25;7.12;49.40
74416;SHT31;62850;42.428;25.618;2023-03-31T02:25:55;7.19;49.49
74416;SHT31;62850;42.428;25.618;2023-03-31T02:28:25;7.12;49.79
74416;SHT31;62850;42.428;25.618;2023-03-31T02:33:43;7.21;49.87
74416;SHT31;62850;42.428;25.618;2023-03-31T02:36:08;7.21;49.95
74416;SHT31;62850;42.428;25.618;2023-03-31T02:38:42;7.09;50.81
74416;SHT31;62850;42.428;25.618;2023-03-31T02:41:09;7.14;50.46
74416;SHT31;62850;42.428;25.618;2023-03-31T02:43:35;7.18;50.78
74416;SHT31;62850;42.428;25.618;2023-03-31T02:46:00;7.05;51.39
74416;SHT31;62850;42.428;25.618;2023-03-31T02:48:33;6.85;52.45
74416;SHT31;62850;42.428;25.618;2023-03-31T02:54:31;6.90;51.89
74416;SHT31;62850;42.428;25.618;2023-03-31T03:17:02;7.39;47.85
74416;SHT31;62850;42.428;25.618;2023-03-31T03:19:30;7.42;47.53
74416;SHT31;62850;42.428;25.618;2023-03-31T03:21:56;7.46;47.77
74416;SHT31;62850;42.428;25.618;2023-03-31T03:24:22;7.46;47.76
74416;SHT31;62850;42.428;25.618;2023-03-31T03:26:47;7.49;47.73
74416;SHT31;62850;42.428;25.618;2023-03-31T03:29:13;7.52;48.08
74416;SHT31;62850;42.428;25.618;2023-03-31T03:31:41;7.49;47.49
74416;SHT31;62850;42.428;25.618;2023-03-31T03:34:07;7.43;49.12
74416;SHT31;62850;42.428;25.618;2023-03-31T03:36:34;7.39;49.94
74416;SHT31;62850;42.428;25.618;2023-03-31T03:39:02;7.39;50.67
74416;SHT31;62850;42.428;25.618;2023-03-31T03:41:28;7.33;50.76
74416;SHT31;62850;42.428;25.618;2023-03-31T03:43:54;7.32;51.46
74416;SHT31;62850;42.428;25.618;2023-03-31T03:46:19;7.36;51.58
74416;SHT31;62850;42.428;25.618;2023-03-31T03:48:44;7.39;51.55
74416;SHT31;62850;42.428;25.618;2023-03-31T03:51:10;7.46;51.41
74416;SHT31;62850;42.428;25.618;2023-03-31T03:53:36;7.56;51.45
74416;SHT31;62850;42.428;25.618;2023-03-31T03:56:01;7.66;51.30
74416;SHT31;62850;42.428;25.618;2023-03-31T03:58:26;7.67;51.50
74416;SHT31;62850;42.428;25.618;2023-03-31T04:00:52;7.71;51.51
74416;SHT31;62850;42.428;25.618;2023-03-31T04:03:17;7.80;51.36
74416;SHT31;62850;42.428;25.618;2023-03-31T04:05:43;7.87;51.28
74416;SHT31;62850;42.428;25.618;2023-03-31T04:08:09;7.87;51.18
74416;SHT31;62850;42.428;25.618;2023-03-31T04:10:34;7.95;50.52
74416;SHT31;62850;42.428;25.618;2023-03-31T04:13:00;8.00;50.59
74416;SHT31;62850;42.428;25.618;2023-03-31T04:15:26;8.00;51.17
74416;SHT31;62850;42.428;25.618;2023-03-31T04:17:51;7.94;51.87
74416;SHT31;62850;42.428;25.618;2023-03-31T04:20:19;8.00;51.81
74416;SHT31;62850;42.428;25.618;2023-03-31T04:22:45;8.01;51.66
74416;SHT31;62850;42.428;25.618;2023-03-31T04:25:15;8.11;49.41
74416;SHT31;62850;42.428;25.618;2023-03-31T04:27:45;8.17;49.01
74416;SHT31;62850;42.428;25.618;2023-03-31T04:30:16;8.32;49.41
74416;SHT31;62850;42.428;25.618;2023-03-31T04:32:54;8.41;49.21
74416;SHT31;62850;42.428;25.618;2023-03-31T04:35:24;8.30;50.50
74416;SHT31;62850;42.428;25.618;2023-03-31T04:37:51;8.27;49.48
74416;SHT31;62850;42.428;25.618;2023-03-31T04:40:23;8.22;49.60
74416;SHT31;62850;42.428;25.618;2023-03-31T04:42:49;8.28;49.27
74416;SHT31;62850;42.428;25.618;2023-03-31T04:45:16;8.32;49.28
74416;SHT31;62850;42.428;25.618;2023-03-31T04:47:41;8.31;50.68
74416;SHT31;62850;42.428;25.618;2023-03-31T04:50:08;8.35;50.95
74416;SHT31;62850;42.428;25.618;2023-03-31T04:52:35;8.41;51.15
74416;SHT31;62850;42.428;25.618;2023-03-31T04:55:00;8.51;50.81
74416;SHT31;62850;42.428;25.618;2023-03-31T04:57:26;8.56;50.70
74416;SHT31;62850;42.428;25.618;2023-03-31T04:59:51;8.59;49.95
74416;SHT31;62850;42.428;25.618;2023-03-31T05:02:17;8.60;47.80
74416;SHT31;62850;42.428;25.618;2023-03-31T05:04:48;8.66;47.52
74416;SHT31;62850;42.428;25.618;2023-03-31T05:07:15;8.77;46.98
74416;SHT31;62850;42.428;25.618;2023-03-31T05:09:41;8.77;46.79
74416;SHT31;62850;42.428;25.618;2023-03-31T05:12:06;8.68;47.37
74416;SHT31;62850;42.428;25.618;2023-03-31T05:14:32;8.72;47.59
74416;SHT31;62850;42.428;25.618;2023-03-31T05:16:57;8.66;48.07
74416;SHT31;62850;42.428;25.618;2023-03-31T05:19:23;8.68;47.95
74416;SHT31;62850;42.428;25.618;2023-03-31T05:21:49;8.69;48.41
74416;SHT31;62850;42.428;25.618;2023-03-31T05:24:17;8.65;49.22
74416;SHT31;62850;42.428;25.618;2023-03-31T05:26:42;8.63;50.95
74416;SHT31;62850;42.428;25.618;2023-03-31T05:29:19;8.76;49.56
74416;SHT31;62850;42.428;25.618;2023-03-31T05:31:45;8.87;49.57
74416;SHT31;62850;42.428;25.618;2023-03-31T05:34:11;8.89;49.64
74416;SHT31;62850;42.428;25.618;2023-03-31T05:36:37;8.94;52.63
74416;SHT31;62850;42.428;25.618;2023-03-31T05:39:04;9.04;49.06
74416;SHT31;62850;42.428;25.618;2023-03-31T05:41:29;9.11;46.89
74416;SHT31;62850;42.428;25.618;2023-03-31T05:43:55;9.04;47.79
74416;SHT31;62850;42.428;25.618;2023-03-31T05:46:20;9.13;47.39
74416;SHT31;62850;42.428;25.618;2023-03-31T05:48:46;9.13;46.91
74416;SHT31;62850;42.428;25.618;2023-03-31T05:51:11;9.19;46.87
74416;SHT31;62850;42.428;25.618;2023-03-31T05:53:37;9.17;47.42
74416;SHT31;62850;42.428;25.618;2023-03-31T05:56:04;9.21;47.37
74416;SHT31;62850;42.428;25.618;2023-03-31T05:58:35;9.20;47.63
74416;SHT31;62850;42.428;25.618;2023-03-31T06:03:30;9.09;48.57
74416;SHT31;62850;42.428;25.618;2023-03-31T06:05:55;9.04;47.72
74416;SHT31;62850;42.428;25.618;2023-03-31T06:08:21;9.00;47.87
74416;SHT31;62850;42.428;25.618;2023-03-31T06:10:47;9.00;47.93
74416;SHT31;62850;42.428;25.618;2023-03-31T06:13:12;9.04;47.92
74416;SHT31;62850;42.428;25.618;2023-03-31T06:15:37;9.01;48.54
74416;SHT31;62850;42.428;25.618;2023-03-31T06:18:03;9.01;48.47
74416;SHT31;62850;42.428;25.618;2023-03-31T06:20:31;9.04;50.07
74416;SHT31;62850;42.428;25.618;2023-03-31T06:22:57;9.09;48.83
74416;SHT31;62850;42.428;25.618;2023-03-31T06:25:22;9.17;48.44
74416;SHT31;62850;42.428;25.618;2023-03-31T06:27:48;9.24;49.27
74416;SHT31;62850;42.428;25.618;2023-03-31T06:30:13;9.34;48.06
74416;SHT31;62850;42.428;25.618;2023-03-31T06:32:39;9.32;47.81
74416;SHT31;62850;42.428;25.618;2023-03-31T06:35:04;9.28;48.01
74416;SHT31;62850;42.428;25.618;2023-03-31T06:37:30;9.27;47.94
74416;SHT31;62850;42.428;25.618;2023-03-31T06:39:56;9.27;48.21
74416;SHT31;62850;42.428;25.618;2023-03-31T06:42:21;9.38;48.15
74416;SHT31;62850;42.428;25.618;2023-03-31T06:44:47;9.27;48.48
74416;SHT31;62850;42.428;25.618;2023-03-31T06:47:12;9.34;48.58
74416;SHT31;62850;42.428;25.618;2023-03-31T06:49:37;9.45;48.28
74416;SHT31;62850;42.428;25.618;2023-03-31T06:52:03;9.51;48.34
74416;SHT31;62850;42.428;25.618;2023-03-31T06:54:29;9.51;47.94
74416;SHT31;62850;42.428;25.618;2023-03-31T06:56:54;9.44;47.91
74416;SHT31;62850;42.428;25.618;2023-03-31T06:59:20;9.57;47.53
74416;SHT31;62850;42.428;25.618;2023-03-31T07:01:45;9.59;46.82
74416;SHT31;62850;42.428;25.618;2023-03-31T07:04:12;9.62;46.85
74416;SHT31;62850;42.428;25.618;2023-03-31T07:06:38;9.47;46.73
74416;SHT31;62850;42.428;25.618;2023-03-31T07:09:03;9.47;46.64
74416;SHT31;62850;42.428;25.618;2023-03-31T07:11:29;9.55;46.79
74416;SHT31;62850;42.428;25.618;2023-03-31T07:13:55;9.65;46.27
74416;SHT31;62850;42.428;25.618;2023-03-31T07:16:20;9.63;46.06
74416;SHT31;62850;42.428;25.618;2023-03-31T07:18:46;9.74;45.97
74416;SHT31;62850;42.428;25.618;2023-03-31T07:21:11;9.79;46.21
74416;SHT31;62850;42.428;25.618;2023-03-31T07:23:37;9.86;45.43
74416;SHT31;62850;42.428;25.618;2023-03-31T07:26:02;9.78;46.15
74416;SHT31;62850;42.428;25.618;2023-03-31T07:28:29;9.85;45.23
74416;SHT31;62850;42.428;25.618;2023-03-31T07:30:55;9.88;45.23
74416;SHT31;62850;42.428;25.618;2023-03-31T07:33:20;9.81;45.19
74416;SHT31;62850;42.428;25.618;2023-03-31T07:35:45;9.90;45.42
74416;SHT31;62850;42.428;25.618;2023-03-31T07:38:11;9.89;46.03
74416;SHT31;62850;42.428;25.618;2023-03-31T07:40:38;9.98;45.39
74416;SHT31;62850;42.428;25.618;2023-03-31T07:43:04;9.93;45.31
74416;SHT31;62850;42.428;25.618;2023-03-31T07:45:30;9.99;44.87
74416;SHT31;62850;42.428;25.618;2023-03-31T07:47:56;10.02;44.72
74416;SHT31;62850;42.428;25.618;2023-03-31T07:50:22;10.08;44.45
74416;SHT31;62850;42.428;25.618;2023-03-31T07:52:48;10.02;44.45
74416;SHT31;62850;42.428;25.618;2023-03-31T07:55:14;10.06;44.55
74416;SHT31;62850;42.428;25.618;2023-03-31T07:57:41;10.12;44.34
74416;SHT31;62850;42.428;25.618;2023-03-31T08:00:09;10.20;44.38
74416;SHT31;62850;42.428;25.618;2023-03-31T08:02:37;10.16;44.40
74416;SHT31;62850;42.428;25.618;2023-03-31T08:05:03;10.21;44.44
74416;SHT31;62850;42.428;25.618;2023-03-31T08:07:33;10.33;44.28
74416;SHT31;62850;42.428;25.618;2023-03-31T08:09:58;10.43;44.02
74416;SHT31;62850;42.428;25.618;2023-03-31T08:12:24;10.51;43.45
74416;SHT31;62850;42.428;25.618;2023-03-31T08:14:49;10.63;44.07
74416;SHT31;62850;42.428;25.618;2023-03-31T08:17:15;10.82;43.29
74416;SHT31;62850;42.428;25.618;2023-03-31T08:19:40;10.95;42.72
74416;SHT31;62850;42.428;25.618;2023-03-31T08:22:06;11.06;42.88
74416;SHT31;62850;42.428;25.618;2023-03-31T08:24:31;11.40;42.41
74416;SHT31;62850;42.428;25.618;2023-03-31T08:26:57;11.43;41.71
74416;SHT31;62850;42.428;25.618;2023-03-31T08:29:22;11.39;42.49
74416;SHT31;62850;42.428;25.618;2023-03-31T08:31:48;11.36;42.70
74416;SHT31;62850;42.428;25.618;2023-03-31T08:34:13;11.56;42.64
74416;SHT31;62850;42.428;25.618;2023-03-31T08:36:39;11.64;42.41
74416;SHT31;62850;42.428;25.618;2023-03-31T08:39:05;11.62;42.12
74416;SHT31;62850;42.428;25.618;2023-03-31T08:41:41;11.67;41.57
74416;SHT31;62850;42.428;25.618;2023-03-31T08:44:15;11.80;41.95
74416;SHT31;62850;42.428;25.618;2023-03-31T08:46:42;11.88;41.33
74416;SHT31;62850;42.428;25.618;2023-03-31T08:49:14;12.01;41.23
74416;SHT31;62850;42.428;25.618;2023-03-31T08:51:48;12.18;41.28
74416;SHT31;62850;42.428;25.618;2023-03-31T08:54:32;12.35;41.11
74416;SHT31;62850;42.428;25.618;2023-03-31T08:56:58;12.56;40.97
74416;SHT31;62850;42.428;25.618;2023-03-31T08:59:32;12.82;40.92
74416;SHT31;62850;42.428;25.618;2023-03-31T09:02:20;13.07;40.67
74416;SHT31;62850;42.428;25.618;2023-03-31T09:19:00;13.87;39.75
74416;SHT31;62850;42.428;25.618;2023-03-31T09:21:42;14.09;39.08
74416;SHT31;62850;42.428;25.618;2023-03-31T09:24:20;14.06;39.68
74416;SHT31;62850;42.428;25.618;2023-03-31T09:27:16;14.12;40.10
74416;SHT31;62850;42.428;25.618;2023-03-31T09:29:43;14.19;40.02
74416;SHT31;62850;42.428;25.618;2023-03-31T09:32:20;14.23;39.80
74416;SHT31;62850;42.428;25.618;2023-03-31T09:34:51;14.17;39.95
74416;SHT31;62850;42.428;25.618;2023-03-31T09:37:17;14.26;40.45
74416;SHT31;62850;42.428;25.618;2023-03-31T09:39:43;14.40;40.61
74416;SHT31;62850;42.428;25.618;2023-03-31T09:42:12;14.41;40.67
74416;SHT31;62850;42.428;25.618;2023-03-31T09:44:40;14.45;40.50
74416;SHT31;62850;42.428;25.618;2023-03-31T09:47:14;14.37;40.86
74416;SHT31;62850;42.428;25.618;2023-03-31T09:49:44;14.33;41.38
74416;SHT31;62850;42.428;25.618;2023-03-31T09:52:40;14.26;41.31
74416;SHT31;62850;42.428;25.618;2023-03-31T09:55:24;14.24;41.51
74416;SHT31;62850;42.428;25.618;2023-03-31T09:57:51;14.27;41.67
74416;SHT31;62850;42.428;25.618;2023-03-31T10:00:21;14.45;41.79
74416;SHT31;62850;42.428;25.618;2023-03-31T10:03:00;14.63;41.35
74416;SHT31;62850;42.428;25.618;2023-03-31T10:05:38;14.61;41.59
74416;SHT31;62850;42.428;25.618;2023-03-31T10:10:49;14.65;41.62
74416;SHT31;62850;42.428;25.618;2023-03-31T10:13:19;14.81;42.10
74416;SHT31;62850;42.428;25.618;2023-03-31T10:15:44;14.98;41.43
74416;SHT31;62850;42.428;25.618;2023-03-31T10:18:18;15.23;41.20
74416;SHT31;62850;42.428;25.618;2023-03-31T10:20:57;15.22;41.66
74416;SHT31;62850;42.428;25.618;2023-03-31T10:23:30;15.16;42.20
74416;SHT31;62850;42.428;25.618;2023-03-31T10:25:57;15.08;41.96
74416;SHT31;62850;42.428;25.618;2023-03-31T10:28:23;15.22;42.03
74416;SHT31;62850;42.428;25.618;2023-03-31T10:30:55;15.60;41.72
74416;SHT31;62850;42.428;25.618;2023-03-31T10:33:31;16.00;40.73
74416;SHT31;62850;42.428;25.618;2023-03-31T10:35:59;16.49;40.13
74416;SHT31;62850;42.428;25.618;2023-03-31T10:38:30;16.96;39.23
74416;SHT31;62850;42.428;25.618;2023-03-31T10:40:58;17.35;38.53
74416;SHT31;62850;42.428;25.618;2023-03-31T10:43:51;17.67;37.87
74416;SHT31;62850;42.428;25.618;2023-03-31T10:46:17;17.82;37.18
74416;SHT31;62850;42.428;25.618;2023-03-31T10:48:42;18.02;37.16
74416;SHT31;62850;42.428;25.618;2023-03-31T10:53:44;18.54;36.10
74416;SHT31;62850;42.428;25.618;2023-03-31T10:59:38;18.81;36.06
74416;SHT31;62850;42.428;25.618;2023-03-31T11:13:27;19.53;34.86
74416;SHT31;62850;42.428;25.618;2023-03-31T11:21:20;19.64;35.18
74416;SHT31;62850;42.428;25.618;2023-03-31T11:30:05;20.08;34.60
74416;SHT31;62850;42.428;25.618;2023-03-31T11:38:15;20.29;34.78
74416;SHT31;62850;42.428;25.618;2023-03-31T11:48:46;20.92;33.86
74416;SHT31;62850;42.428;25.618;2023-03-31T11:53:53;21.26;33.36
74416;SHT31;62850;42.428;25.618;2023-03-31T11:56:22;21.07;33.68
74416;SHT31;62850;42.428;25.618;2023-03-31T11:58:52;20.87;34.42
74416;SHT31;62850;42.428;25.618;2023-03-31T12:06:39;20.18;35.75
74416;SHT31;62850;42.428;25.618;2023-03-31T12:09:20;19.95;36.41
74416;SHT31;62850;42.428;25.618;2023-03-31T12:11:54;19.88;36.47
74416;SHT31;62850;42.428;25.618;2023-03-31T12:14:40;19.81;36.67
74416;SHT31;62850;42.428;25.618;2023-03-31T12:17:22;19.70;36.82
74416;SHT31;62850;42.428;25.618;2023-03-31T12:24:47;19.32;38.17
74416;SHT31;62850;42.428;25.618;2023-03-31T12:27:36;19.30;38.26
74416;SHT31;62850;42.428;25.618;2023-03-31T12:32:39;19.46;37.89
74416;SHT31;62850;42.428;25.618;2023-03-31T12:49:11;19.43;38.24
74416;SHT31;62850;42.428;25.618;2023-03-31T12:54:27;19.50;38.23
74416;SHT31;62850;42.428;25.618;2023-03-31T12:59:46;19.60;38.07
74416;SHT31;62850;42.428;25.618;2023-03-31T13:02:34;19.64;38.43
74416;SHT31;62850;42.428;25.618;2023-03-31T13:08:04;19.71;37.78
74416;SHT31;62850;42.428;25.618;2023-03-31T13:10:31;19.64;38.11
74416;SHT31;62850;42.428;25.618;2023-03-31T13:15:27;19.83;37.81
74416;SHT31;62850;42.428;25.618;2023-03-31T13:18:05;19.71;37.62
74416;SHT31;62850;42.428;25.618;2023-03-31T13:20:33;19.90;37.65
74416;SHT31;62850;42.428;25.618;2023-03-31T13:23:16;20.18;37.55
74416;SHT31;62850;42.428;25.618;2023-03-31T13:25:49;20.57;37.11
74416;SHT31;62850;42.428;25.618;2023-03-31T13:44:48;21.51;35.18
74416;SHT31;62850;42.428;25.618;2023-03-31T14:07:15;22.71;33.81
74416;SHT31;62850;42.428;25.618;2023-03-31T14:09:43;22.83;33.30
74416;SHT31;62850;42.428;25.618;2023-03-31T14:12:34;22.94;32.83
74416;SHT31;62850;42.428;25.618;2023-03-31T14:15:00;22.57;33.42
74416;SHT31;62850;42.428;25.618;2023-03-31T14:17:32;22.26;33.96
74416;SHT31;62850;42.428;25.618;2023-03-31T14:22:55;21.85;34.56
74416;SHT31;62850;42.428;25.618;2023-03-31T14:31:13;21.96;34.32
74416;SHT31;62850;42.428;25.618;2023-03-31T14:37:01;21.79;34.81
74416;SHT31;62850;42.428;25.618;2023-03-31T14:39:48;21.63;35.45
74416;SHT31;62850;42.428;25.618;2023-03-31T14:42:17;21.89;35.27
74416;SHT31;62850;42.428;25.618;2023-03-31T14:44:44;22.09;35.20
74416;SHT31;62850;42.428;25.618;2023-03-31T14:47:21;22.14;34.99
74416;SHT31;62850;42.428;25.618;2023-03-31T14:49:47;22.29;34.86
74416;SHT31;62850;42.428;25.618;2023-03-31T14:52:22;22.29;34.81
74416;SHT31;62850;42.428;25.618;2023-03-31T14:54:51;22.35;34.52
74416;SHT31;62850;42.428;25.618;2023-03-31T14:57:35;22.24;34.72
74416;SHT31;62850;42.428;25.618;2023-03-31T15:00:06;22.00;35.27
74416;SHT31;62850;42.428;25.618;2023-03-31T15:02:40;22.00;35.23
74416;SHT31;62850;42.428;25.618;2023-03-31T15:05:20;21.95;35.33
74416;SHT31;62850;42.428;25.618;2023-03-31T15:07:49;21.90;35.14
74416;SHT31;62850;42.428;25.618;2023-03-31T15:10:19;21.79;35.82
74416;SHT31;62850;42.428;25.618;2023-03-31T15:12:49;21.68;35.60
74416;SHT31;62850;42.428;25.618;2023-03-31T15:15:17;21.66;35.53
74416;SHT31;62850;42.428;25.618;2023-03-31T15:17:45;21.45;35.52
74416;SHT31;62850;42.428;25.618;2023-03-31T15:22:53;21.40;35.66
74416;SHT31;62850;42.428;25.618;2023-03-31T15:25:20;21.21;35.92
74416;SHT31;62850;42.428;25.618;2023-03-31T15:27:51;20.99;36.18
74416;SHT31;62850;42.428;25.618;2023-03-31T15:30:21;20.75;36.79
74416;SHT31;62850;42.428;25.618;2023-03-31T15:32:47;20.51;37.35
74416;SHT31;62850;42.428;25.618;2023-03-31T15:35:23;20.12;37.91
74416;SHT31;62850;42.428;25.618;2023-03-31T15:37:53;19.98;38.19
74416;SHT31;62850;42.428;25.618;2023-03-31T15:40:25;19.67;38.76
74416;SHT31;62850;42.428;25.618;2023-03-31T15:42:57;19.35;39.58
74416;SHT31;62850;42.428;25.618;2023-03-31T15:47:55;19.14;40.70
74416;SHT31;62850;42.428;25.618;2023-03-31T15:50:22;18.92;40.97
74416;SHT31;62850;42.428;25.618;2023-03-31T15:52:53;18.74;41.19
74416;SHT31;62850;42.428;25.618;2023-03-31T15:55:29;18.55;41.28
74416;SHT31;62850;42.428;25.618;2023-03-31T15:57:58;18.46;41.72
74416;SHT31;62850;42.428;25.618;2023-03-31T16:02:56;18.23;42.31
74416;SHT31;62850;42.428;25.618;2023-03-31T16:05:53;18.16;42.41
74416;SHT31;62850;42.428;25.618;2023-03-31T16:11:00;17.99;43.19
74416;SHT31;62850;42.428;25.618;2023-03-31T16:13:27;17.82;43.56
74416;SHT31;62850;42.428;25.618;2023-03-31T16:15:54;17.82;43.65
74416;SHT31;62850;42.428;25.618;2023-03-31T16:18:29;17.76;43.71
74416;SHT31;62850;42.428;25.618;2023-03-31T16:20:57;17.68;44.07
74416;SHT31;62850;42.428;25.618;2023-03-31T16:23:27;17.67;44.18
74416;SHT31;62850;42.428;25.618;2023-03-31T16:25:54;17.55;44.98
74416;SHT31;62850;42.428;25.618;2023-03-31T16:28:32;17.42;45.79
74416;SHT31;62850;42.428;25.618;2023-03-31T16:30:58;17.37;46.08
74416;SHT31;62850;42.428;25.618;2023-03-31T16:33:27;17.17;46.80
74416;SHT31;62850;42.428;25.618;2023-03-31T16:35:54;17.04;47.49
74416;SHT31;62850;42.428;25.618;2023-03-31T16:38:25;16.84;47.96
74416;SHT31;62850;42.428;25.618;2023-03-31T16:40:52;16.79;48.13
74416;SHT31;62850;42.428;25.618;2023-03-31T16:43:28;16.72;48.18
74416;SHT31;62850;42.428;25.618;2023-03-31T16:45:59;16.63;48.56
74416;SHT31;62850;42.428;25.618;2023-03-31T16:48:27;16.39;49.21
74416;SHT31;62850;42.428;25.618;2023-03-31T16:50:56;16.19;49.99
74416;SHT31;62850;42.428;25.618;2023-03-31T16:53:26;15.98;50.70
74416;SHT31;62850;42.428;25.618;2023-03-31T16:55:52;15.79;51.33
74416;SHT31;62850;42.428;25.618;2023-03-31T16:58:18;15.67;51.66
74416;SHT31;62850;42.428;25.618;2023-03-31T17:00:44;15.73;51.67
74416;SHT31;62850;42.428;25.618;2023-03-31T17:03:10;15.67;51.56
74416;SHT31;62850;42.428;25.618;2023-03-31T17:05:44;15.60;51.94
74416;SHT31;62850;42.428;25.618;2023-03-31T17:08:12;15.30;52.22
74416;SHT31;62850;42.428;25.618;2023-03-31T17:10:39;15.13;52.82
74416;SHT31;62850;42.428;25.618;2023-03-31T17:13:06;15.08;52.77
74416;SHT31;62850;42.428;25.618;2023-03-31T17:15:32;14.96;53.01
74416;SHT31;62850;42.428;25.618;2023-03-31T17:18:01;14.91;52.94
74416;SHT31;62850;42.428;25.618;2023-03-31T17:20:28;14.80;53.22
74416;SHT31;62850;42.428;25.618;2023-03-31T17:22:54;14.57;53.48
74416;SHT31;62850;42.428;25.618;2023-03-31T17:25:20;14.48;53.95
74416;SHT31;62850;42.428;25.618;2023-03-31T17:27:46;14.38;54.12
74416;SHT31;62850;42.428;25.618;2023-03-31T17:30:12;14.24;54.36
74416;SHT31;62850;42.428;25.618;2023-03-31T17:32:38;14.09;54.73
74416;SHT31;62850;42.428;25.618;2023-03-31T17:35:04;14.10;54.55
74416;SHT31;62850;42.428;25.618;2023-03-31T17:37:31;14.08;54.75
74416;SHT31;62850;42.428;25.618;2023-03-31T17:39:57;14.13;54.64
74416;SHT31;62850;42.428;25.618;2023-03-31T17:42:23;14.13;54.27
74416;SHT31;62850;42.428;25.618;2023-03-31T17:44:49;14.16;54.18
74416;SHT31;62850;42.428;25.618;2023-03-31T17:47:16;14.13;54.28
74416;SHT31;62850;42.428;25.618;2023-03-31T17:49:42;14.06;54.17
74416;SHT31;62850;42.428;25.618;2023-03-31T17:52:07;14.01;54.37
74416;SHT31;62850;42.428;25.618;2023-03-31T17:54:33;13.83;54.95
74416;SHT31;62850;42.428;25.618;2023-03-31T17:56:58;13.68;55.18
74416;SHT31;62850;42.428;25.618;2023-03-31T17:59:24;13.78;55.02
74416;SHT31;62850;42.428;25.618;2023-03-31T18:01:50;13.65;55.45
74416;SHT31;62850;42.428;25.618;2023-03-31T18:04:15;13.66;55.36
74416;SHT31;62850;42.428;25.618;2023-03-31T18:06:41;13.59;55.52
74416;SHT31;62850;42.428;25.618;2023-03-31T18:09:09;13.44;55.83
74416;SHT31;62850;42.428;25.618;2023-03-31T18:11:35;13.41;56.04
74416;SHT31;62850;42.428;25.618;2023-03-31T18:14:02;13.45;55.87
74416;SHT31;62850;42.428;25.618;2023-03-31T18:16:28;13.38;56.15
74416;SHT31;62850;42.428;25.618;2023-03-31T18:18:54;13.34;55.96
74416;SHT31;62850;42.428;25.618;2023-03-31T18:21:20;13.35;56.00
74416;SHT31;62850;42.428;25.618;2023-03-31T18:23:48;13.37;55.97
74416;SHT31;62850;42.428;25.618;2023-03-31T18:26:17;13.35;56.14
74416;SHT31;62850;42.428;25.618;2023-03-31T18:28:43;13.44;55.99
74416;SHT31;62850;42.428;25.618;2023-03-31T18:31:09;13.55;55.72
74416;SHT31;62850;42.428;25.618;2023-03-31T18:33:36;13.57;55.50
74416;SHT31;62850;42.428;25.618;2023-03-31T18:36:01;13.51;55.50
74416;SHT31;62850;42.428;25.618;2023-03-31T18:38:27;13.34;56.02
74416;SHT31;62850;42.428;25.618;2023-03-31T18:40:53;13.30;56.03
74416;SHT31;62850;42.428;25.618;2023-03-31T18:43:19;13.33;56.05
74416;SHT31;62850;42.428;25.618;2023-03-31T18:45:50;13.33;56.04
74416;SHT31;62850;42.428;25.618;2023-03-31T18:48:15;13.30;56.05
74416;SHT31;62850;42.428;25.618;2023-03-31T18:50:46;13.28;56.53
74416;SHT31;62850;42.428;25.618;2023-03-31T18:53:12;13.34;56.22
74416;SHT31;62850;42.428;25.618;2023-03-31T18:55:42;13.21;56.54
74416;SHT31;62850;42.428;25.618;2023-03-31T18:58:08;13.24;56.39
74416;SHT31;62850;42.428;25.618;2023-03-31T19:00:34;13.18;56.68
74416;SHT31;62850;42.428;25.618;2023-03-31T19:02:59;13.30;56.51
74416;SHT31;62850;42.428;25.618;2023-03-31T19:05:25;13.34;56.34
74416;SHT31;62850;42.428;25.618;2023-03-31T19:07:51;13.37;56.30